createdAt,value
2018-06-12T00:00:44.908Z,1.13
2018-06-12T00:03:13.866Z,0.50
2018-06-12T00:05:42.805Z,0.30
2018-06-12T00:08:11.901Z,0.30
2018-06-12T00:10:40.846Z,0.30
2018-06-12T00:13:09.782Z,0.87
2018-06-12T00:15:38.717Z,0.50
2018-06-12T00:18:07.622Z,0.70
2018-06-12T00:20:36.561Z,0.60
2018-06-12T00:23:05.514Z,0.60
2018-06-12T00:25:34.469Z,0.50
2018-06-12T00:28:03.386Z,0.97
2018-06-12T00:30:32.330Z,0.30
2018-06-12T00:33:01.261Z,0.33
2018-06-12T00:35:30.198Z,0.40
2018-06-12T00:37:59.745Z,0.30
2018-06-12T00:40:28.717Z,0.30
2018-06-12T00:42:57.778Z,0.40
2018-06-12T00:45:26.735Z,0.20
2018-06-12T00:47:55.673Z,0.30
2018-06-12T00:50:24.694Z,0.20
2018-06-12T00:52:53.713Z,0.30
2018-06-12T00:55:22.634Z,0.30
2018-06-12T00:57:51.583Z,0.30
2018-06-12T01:00:20.509Z,0.30
2018-06-12T01:02:49.468Z,0.30
2018-06-12T01:05:17.956Z,0.30
2018-06-12T01:07:46.876Z,0.20
2018-06-12T01:10:15.837Z,0.47
2018-06-12T01:12:44.821Z,0.60
2018-06-12T01:15:13.742Z,0.30
2018-06-12T01:17:42.674Z,0.30
2018-06-12T01:20:11.602Z,0.30
2018-06-12T01:22:40.517Z,0.50
2018-06-12T01:25:09.481Z,0.50
2018-06-12T01:27:38.413Z,0.43
2018-06-12T01:30:07.349Z,0.60
2018-06-12T01:32:36.297Z,0.50
2018-06-12T01:35:05.229Z,0.50
2018-06-12T01:37:34.169Z,0.73
2018-06-12T01:40:03.125Z,0.50
2018-06-12T01:42:32.050Z,0.30
2018-06-12T01:45:00.981Z,0.50
2018-06-12T01:47:29.909Z,0.30
2018-06-12T01:49:58.896Z,0.30
2018-06-12T01:52:27.830Z,0.47
2018-06-12T01:54:56.752Z,0.30
2018-06-12T01:57:25.792Z,0.53
2018-06-12T01:59:54.713Z,0.57
2018-06-12T02:02:23.643Z,0.50
2018-06-12T02:04:52.576Z,0.50
2018-06-12T02:07:21.490Z,0.77
2018-06-12T02:09:50.421Z,0.60
2018-06-12T02:12:19.401Z,0.40
2018-06-12T02:14:48.348Z,0.50
2018-06-12T02:17:17.305Z,0.50
2018-06-12T02:19:46.227Z,0.67
2018-06-12T02:22:15.180Z,0.50
2018-06-12T02:24:44.085Z,0.43
2018-06-12T02:27:13.018Z,0.60
2018-06-12T02:29:41.966Z,0.70
2018-06-12T02:32:10.901Z,0.60
2018-06-12T02:34:39.807Z,0.47
2018-06-12T02:37:08.745Z,0.60
2018-06-12T02:39:37.681Z,0.70
2018-06-12T02:42:06.650Z,0.87
2018-06-12T02:44:35.586Z,0.60
2018-06-12T02:47:04.654Z,0.80
2018-06-12T02:49:33.594Z,0.70
2018-06-12T02:55:43.731Z,0.80
2018-06-12T02:58:12.681Z,1.00
2018-06-12T03:00:41.598Z,0.97
2018-06-12T03:03:10.548Z,0.80
2018-06-12T03:05:39.477Z,0.80
2018-06-12T03:08:08.403Z,1.40
2018-06-12T03:10:37.317Z,0.90
2018-06-12T03:13:06.257Z,1.00
2018-06-12T03:15:35.188Z,1.43
2018-06-12T03:18:04.151Z,1.30
2018-06-12T03:20:45.929Z,1.20
2018-06-12T03:23:14.917Z,1.23
2018-06-12T03:25:44.021Z,1.10
2018-06-12T03:28:12.945Z,0.83
2018-06-12T03:30:41.872Z,0.77
2018-06-12T03:33:10.773Z,1.10
2018-06-12T03:35:39.689Z,1.03
2018-06-12T03:38:08.618Z,1.03
2018-06-12T03:40:37.541Z,1.00
2018-06-12T03:43:06.446Z,0.90
2018-06-12T03:45:35.418Z,1.03
2018-06-12T03:48:04.373Z,0.90
2018-06-12T03:50:33.289Z,1.00
2018-06-12T03:53:02.242Z,0.77
2018-06-12T03:55:31.158Z,0.97
2018-06-12T03:58:00.112Z,1.00
2018-06-12T04:00:29.033Z,1.00
2018-06-12T04:02:58.040Z,1.00
2018-06-12T04:05:26.536Z,1.40
2018-06-12T04:07:55.455Z,0.60
2018-06-12T04:10:24.414Z,0.63
2018-06-12T04:12:52.917Z,0.63
2018-06-12T04:15:21.901Z,0.83
2018-06-12T04:17:50.842Z,0.90
2018-06-12T04:20:19.765Z,0.50
2018-06-12T04:22:48.704Z,0.63
2018-06-12T04:25:17.608Z,0.70
2018-06-12T04:27:46.988Z,0.70
2018-06-12T04:30:15.889Z,0.90
2018-06-12T04:32:44.785Z,0.70
2018-06-12T04:35:13.672Z,0.80
2018-06-12T04:37:42.572Z,0.70
2018-06-12T04:40:11.513Z,0.80
2018-06-12T04:42:40.411Z,1.03
2018-06-12T04:45:09.317Z,0.70
2018-06-12T04:47:38.209Z,0.90
2018-06-12T04:50:07.109Z,0.87
2018-06-12T04:52:36.045Z,0.90
2018-06-12T04:55:05.657Z,1.07
2018-06-12T04:57:34.561Z,1.17
2018-06-12T05:00:03.969Z,0.90
2018-06-12T05:02:32.436Z,0.70
2018-06-12T05:05:01.321Z,1.70
2018-06-12T05:07:29.787Z,1.33
2018-06-12T05:09:58.677Z,1.10
2018-06-12T05:12:27.581Z,0.73
2018-06-12T05:14:56.478Z,0.80
2018-06-12T05:17:25.392Z,0.60
2018-06-12T05:19:54.328Z,1.17
2018-06-12T05:22:23.217Z,0.67
2018-06-12T05:24:52.129Z,0.70
2018-06-12T05:27:21.030Z,0.90
2018-06-12T05:29:49.916Z,0.60
2018-06-12T05:32:18.804Z,0.50
2018-06-12T05:34:47.685Z,0.70
2018-06-12T05:37:16.640Z,0.80
2018-06-12T05:39:45.513Z,0.83
2018-06-12T05:42:14.400Z,0.60
2018-06-12T05:44:43.287Z,0.60
2018-06-12T05:47:12.186Z,1.60
2018-06-12T05:49:41.066Z,1.53
2018-06-12T05:52:09.524Z,0.50
2018-06-12T05:54:38.416Z,0.60
2018-06-12T05:57:07.354Z,0.60
2018-06-12T05:59:36.252Z,1.50
2018-06-12T06:02:05.332Z,1.37
2018-06-12T06:04:34.224Z,1.40
2018-06-12T06:07:03.129Z,0.90
2018-06-12T06:09:32.013Z,0.70
2018-06-12T06:12:00.929Z,0.60
2018-06-12T06:14:29.809Z,0.93
2018-06-12T06:16:58.978Z,0.80
2018-06-12T06:19:27.945Z,1.43
2018-06-12T06:21:56.849Z,0.63
2018-06-12T06:24:25.769Z,0.80
2018-06-12T06:26:54.685Z,1.70
2018-06-12T06:30:26.521Z,1.70
2018-06-12T06:32:55.441Z,0.60
2018-06-12T06:35:24.389Z,0.50
2018-06-12T06:37:53.289Z,0.57
2018-06-12T06:40:22.288Z,0.50
2018-06-12T06:42:51.173Z,0.60
2018-06-12T06:45:20.061Z,0.70
2018-06-12T06:47:48.949Z,0.50
2018-06-12T06:50:17.884Z,0.60
2018-06-12T06:52:46.814Z,1.10
2018-06-12T06:55:15.709Z,1.20
2018-06-12T06:57:44.613Z,0.60
2018-06-12T07:00:13.495Z,0.80
2018-06-12T07:02:42.382Z,0.50
2018-06-12T07:05:11.309Z,1.50
2018-06-12T07:07:40.283Z,1.10
2018-06-12T07:10:09.287Z,0.70
2018-06-12T07:12:42.474Z,0.50
2018-06-12T07:15:11.856Z,0.50
2018-06-12T07:17:40.802Z,0.67
2018-06-12T07:20:09.738Z,0.50
2018-06-12T07:22:38.636Z,0.50
2018-06-12T07:25:07.588Z,0.50
2018-06-12T07:27:36.530Z,0.50
2018-06-12T07:30:06.438Z,0.50
2018-06-12T07:32:35.385Z,0.37
2018-06-12T07:35:05.077Z,0.40
2018-06-12T07:37:34.018Z,0.40
2018-06-12T07:40:03.101Z,0.47
2018-06-12T07:42:31.704Z,0.50
2018-06-12T07:45:00.618Z,0.50
2018-06-12T07:47:29.540Z,0.40
2018-06-12T07:49:58.485Z,0.40
2018-06-12T07:52:27.409Z,0.50
2018-06-12T07:54:56.341Z,0.60
2018-06-12T07:57:25.263Z,0.53
2018-06-12T07:59:54.195Z,0.90
2018-06-12T08:02:23.806Z,0.60
2018-06-12T08:04:57.152Z,0.80
2018-06-12T08:07:27.709Z,0.93
2018-06-12T08:10:00.426Z,0.50
2018-06-12T08:12:34.697Z,0.50
2018-06-12T08:15:08.753Z,0.50
2018-06-12T08:17:41.517Z,0.50
2018-06-12T08:20:11.767Z,0.47
2018-06-12T08:22:41.281Z,0.50
2018-06-12T08:25:15.677Z,0.90
2018-06-12T08:27:49.209Z,0.60
2018-06-12T08:30:24.023Z,0.80
2018-06-12T08:32:54.676Z,0.40
2018-06-12T08:35:28.817Z,0.50
2018-06-12T08:37:59.271Z,0.37
2018-06-12T08:40:29.295Z,0.50
2018-06-12T08:43:00.161Z,0.50
2018-06-12T08:45:31.045Z,0.50
2018-06-12T08:48:04.099Z,0.50
2018-06-12T08:50:34.835Z,0.50
2018-06-12T08:53:06.826Z,0.50
2018-06-12T08:55:37.675Z,1.30
2018-06-12T08:58:07.328Z,0.40
2018-06-12T09:00:41.588Z,0.70
2018-06-12T09:03:15.503Z,0.50
2018-06-12T09:05:51.236Z,1.33
2018-06-12T09:08:22.546Z,1.30
2018-06-12T09:10:53.796Z,0.70
2018-06-12T09:13:26.865Z,0.70
2018-06-12T09:15:58.889Z,0.60
2018-06-12T09:18:28.920Z,0.50
2018-06-12T09:21:00.248Z,0.60
2018-06-12T09:23:35.835Z,0.50
2018-06-12T09:26:09.331Z,0.83
2018-06-12T09:28:40.734Z,0.70
2018-06-12T09:31:12.204Z,0.50
2018-06-12T09:33:43.995Z,0.40
2018-06-12T09:36:24.449Z,0.30
2018-06-12T09:38:53.939Z,0.30
2018-06-12T09:41:23.072Z,0.40
2018-06-12T09:43:59.517Z,0.50
2018-06-12T09:46:30.338Z,0.30
2018-06-12T09:49:04.218Z,0.40
2018-06-12T09:51:37.633Z,0.40
2018-06-12T09:54:11.736Z,0.40
2018-06-12T09:56:46.993Z,0.40
2018-06-12T09:59:22.137Z,0.40
2018-06-12T10:01:51.853Z,0.40
2018-06-12T10:04:23.057Z,0.50
2018-06-12T10:07:00.737Z,0.40
2018-06-12T10:09:32.335Z,0.50
2018-06-12T10:12:03.090Z,0.40
2018-06-12T10:14:37.928Z,0.50
2018-06-12T10:17:09.719Z,0.60
2018-06-12T10:19:39.437Z,0.67
2018-06-12T10:22:13.646Z,0.50
2018-06-12T10:24:47.122Z,0.50
2018-06-12T10:27:18.672Z,0.50
2018-06-12T10:29:51.426Z,0.60
2018-06-12T10:32:24.284Z,0.60
2018-06-12T10:35:00.474Z,0.40
2018-06-12T10:37:32.418Z,0.50
2018-06-12T10:40:04.387Z,0.60
2018-06-12T10:42:35.997Z,0.80
2018-06-12T10:45:10.741Z,0.93
2018-06-12T10:47:43.344Z,0.50
2018-06-12T10:50:14.711Z,0.50
2018-06-12T10:52:47.172Z,0.63
2018-06-12T10:55:17.994Z,0.50
2018-06-12T10:57:48.755Z,0.50
2018-06-12T11:00:20.126Z,0.40
2018-06-12T11:02:58.802Z,0.60
2018-06-12T11:05:30.858Z,0.50
2018-06-12T11:08:08.099Z,0.60
2018-06-12T11:10:39.169Z,0.50
2018-06-12T11:13:09.237Z,0.50
2018-06-12T11:15:42.133Z,0.60
2018-06-12T11:18:15.793Z,0.63
2018-06-12T11:20:46.454Z,0.50
2018-06-12T11:23:17.354Z,0.40
2018-06-12T11:25:48.408Z,0.40
2018-06-12T11:28:18.378Z,0.60
2018-06-12T11:30:52.808Z,0.40
2018-06-12T11:33:26.468Z,0.43
2018-06-12T11:35:55.989Z,0.50
2018-06-12T11:38:36.945Z,0.40
2018-06-12T11:41:12.486Z,0.40
2018-06-12T11:43:42.499Z,0.40
2018-06-12T11:46:13.397Z,0.30
2018-06-12T11:48:45.463Z,0.50
2018-06-12T11:51:15.932Z,0.50
2018-06-12T11:53:53.903Z,0.60
2018-06-12T11:56:24.158Z,0.40
2018-06-12T11:58:57.939Z,0.50
2018-06-12T12:01:35.178Z,0.40
2018-06-12T12:04:07.005Z,0.33
2018-06-12T12:06:40.048Z,0.40
2018-06-12T12:09:11.410Z,0.40
2018-06-12T12:11:47.998Z,0.40
2018-06-12T12:14:19.535Z,0.40
2018-06-12T12:16:57.801Z,0.43
2018-06-12T12:19:29.453Z,0.40
2018-06-12T12:22:03.122Z,0.37
2018-06-12T12:24:33.627Z,0.50
2018-06-12T12:27:06.246Z,0.30
2018-06-12T12:29:39.360Z,0.50
2018-06-12T12:32:09.757Z,0.60
2018-06-12T12:34:45.238Z,0.67
2018-06-12T12:37:15.707Z,0.50
2018-06-12T12:39:46.681Z,0.50
2018-06-12T12:42:19.253Z,0.60
2018-06-12T12:44:54.636Z,0.50
2018-06-12T12:47:25.790Z,0.63
2018-06-12T12:49:58.969Z,0.50
2018-06-12T12:52:33.872Z,0.60
2018-06-12T12:55:07.655Z,0.60
2018-06-12T12:57:42.584Z,0.60
2018-06-12T13:00:20.712Z,0.40
2018-06-12T13:02:54.355Z,0.67
2018-06-12T13:05:30.091Z,0.63
2018-06-12T13:08:04.271Z,0.73
2018-06-12T13:10:38.343Z,0.70
2018-06-12T13:13:20.870Z,0.77
2018-06-12T13:15:56.364Z,0.70
2018-06-12T13:18:27.555Z,0.80
2018-06-12T13:20:57.814Z,0.73
2018-06-12T13:23:28.431Z,0.90
2018-06-12T13:25:59.572Z,0.80
2018-06-12T13:28:34.999Z,0.70
2018-06-12T13:31:10.122Z,0.80
2018-06-12T13:33:44.454Z,0.70
2018-06-12T13:36:16.621Z,0.77
2018-06-12T13:38:47.733Z,0.70
2018-06-12T13:41:18.550Z,0.80
2018-06-12T13:43:51.769Z,0.80
2018-06-12T13:46:23.838Z,0.70
2018-06-12T13:48:56.018Z,0.80
2018-06-12T13:51:30.399Z,0.67
2018-06-12T13:54:09.078Z,0.77
2018-06-12T13:56:40.076Z,0.80
2018-06-12T13:59:14.915Z,0.80
2018-06-12T14:01:49.923Z,0.73
2018-06-12T14:04:21.559Z,0.80
2018-06-12T14:06:54.735Z,0.90
2018-06-12T14:09:26.101Z,0.77
2018-06-12T14:11:57.388Z,0.90
2018-06-12T14:14:31.827Z,0.73
2018-06-12T14:17:04.024Z,0.80
2018-06-12T14:19:39.094Z,0.67
2018-06-12T14:22:10.234Z,0.90
2018-06-12T14:24:45.726Z,0.90
2018-06-12T14:27:17.860Z,0.90
2018-06-12T14:29:51.577Z,0.90
2018-06-12T14:32:24.207Z,1.93
2018-06-12T14:34:57.320Z,0.87
2018-06-12T14:37:28.353Z,1.33
2018-06-12T14:39:58.510Z,1.00
2018-06-12T14:42:29.835Z,0.87
2018-06-12T14:45:05.105Z,1.00
2018-06-12T14:47:39.218Z,1.10
2018-06-12T14:50:12.364Z,1.00
2018-06-12T14:52:46.491Z,0.90
2018-06-12T14:55:17.087Z,0.90
2018-06-12T14:57:49.100Z,0.90
2018-06-12T15:00:19.403Z,0.90
2018-06-12T15:02:54.426Z,0.80
2018-06-12T15:05:26.326Z,0.80
2018-06-12T15:07:57.749Z,1.00
2018-06-12T15:10:28.681Z,0.90
2018-06-12T15:13:00.399Z,1.10
2018-06-12T15:15:32.417Z,0.67
2018-06-12T15:18:02.934Z,0.70
2018-06-12T15:20:34.574Z,0.60
2018-06-12T15:23:06.873Z,1.20
2018-06-12T15:25:39.579Z,0.73
2018-06-12T15:28:12.606Z,1.00
2018-06-12T15:30:46.734Z,2.10
2018-06-12T15:33:23.524Z,0.90
2018-06-12T15:35:55.388Z,1.00
2018-06-12T15:38:27.530Z,0.60
2018-06-12T15:41:01.252Z,1.30
2018-06-12T15:43:33.040Z,0.50
2018-06-12T15:46:02.155Z,0.50
2018-06-12T15:48:32.701Z,0.63
2018-06-12T15:51:03.355Z,0.80
2018-06-12T15:53:36.761Z,0.70
2018-06-12T15:56:08.454Z,1.00
2018-06-12T15:58:38.648Z,0.70
2018-06-12T16:01:13.198Z,0.80
2018-06-12T16:03:47.631Z,0.70
2018-06-12T16:06:20.389Z,0.90
2018-06-12T16:08:51.375Z,0.50
2018-06-12T16:11:24.939Z,0.80
2018-06-12T16:13:53.938Z,0.57
2018-06-12T16:16:22.873Z,0.77
2018-06-12T16:18:51.352Z,0.90
2018-06-12T16:21:20.294Z,0.97
2018-06-12T16:23:49.278Z,0.70
2018-06-12T16:26:18.195Z,0.80
2018-06-12T16:28:47.402Z,0.70
2018-06-12T16:31:16.309Z,1.23
2018-06-12T16:33:45.222Z,1.30
2018-06-12T16:36:14.151Z,1.63
2018-06-12T16:38:43.082Z,2.93
2018-06-12T16:41:11.994Z,7.10
2018-06-12T16:43:40.885Z,12.20
2018-06-12T16:46:09.807Z,20.20
2018-06-12T16:48:38.725Z,17.03
2018-06-12T16:51:07.644Z,17.17
2018-06-12T16:53:36.544Z,9.57
2018-06-12T16:56:05.196Z,7.40
2018-06-12T16:58:34.125Z,4.93
2018-06-12T17:01:03.036Z,3.03
2018-06-12T17:03:31.973Z,3.70
2018-06-12T17:06:00.902Z,6.93
2018-06-12T17:08:29.861Z,10.83
2018-06-12T17:10:58.840Z,4.27
2018-06-12T17:13:27.786Z,2.37
2018-06-12T17:15:56.698Z,1.33
2018-06-12T17:18:25.625Z,1.63
2018-06-12T17:20:54.580Z,0.70
2018-06-12T17:23:23.503Z,0.53
2018-06-12T17:25:52.415Z,0.77
2018-06-12T17:28:21.368Z,0.30
2018-06-12T17:30:50.321Z,0.60
2018-06-12T17:33:19.253Z,0.60
2018-06-12T17:35:48.189Z,0.50
2018-06-12T17:38:17.169Z,1.20
2018-06-12T17:40:46.097Z,1.07
2018-06-12T17:43:15.078Z,0.87
2018-06-12T17:45:43.976Z,0.40
2018-06-12T17:48:13.093Z,0.20
2018-06-12T17:50:42.000Z,0.20
2018-06-12T17:53:10.898Z,0.57
2018-06-12T17:55:39.834Z,0.80
2018-06-12T17:58:08.790Z,0.60
2018-06-12T18:00:37.821Z,0.90
2018-06-12T18:03:06.792Z,0.70
2018-06-12T18:05:35.332Z,0.40
2018-06-12T18:08:04.286Z,0.50
2018-06-12T18:10:33.197Z,0.93
2018-06-12T18:13:02.110Z,0.40
2018-06-12T18:15:31.021Z,0.40
2018-06-12T18:17:59.953Z,1.53
2018-06-12T18:20:28.886Z,0.60
2018-06-12T18:22:57.798Z,0.40
2018-06-12T18:25:26.726Z,0.60
2018-06-12T18:27:55.675Z,0.30
2018-06-12T18:30:24.654Z,0.20
2018-06-12T18:32:53.629Z,0.40
2018-06-12T18:35:22.630Z,0.23
2018-06-12T18:37:51.609Z,0.60
2018-06-12T18:40:20.522Z,1.00
2018-06-12T18:42:49.468Z,0.73
2018-06-12T18:45:18.385Z,0.60
2018-06-12T18:47:47.288Z,0.50
2018-06-12T18:50:16.269Z,0.30
2018-06-12T18:52:46.065Z,0.30
2018-06-12T18:55:14.949Z,0.30
2018-06-12T18:57:43.853Z,0.30
2018-06-12T19:00:38.749Z,0.40
2018-06-12T19:03:07.653Z,0.37
2018-06-12T19:05:44.004Z,0.30
2018-06-12T19:08:12.921Z,0.43
2018-06-12T19:10:41.817Z,0.40
2018-06-12T19:13:11.221Z,0.20
2018-06-12T19:15:40.133Z,0.30
2018-06-12T19:18:09.024Z,0.20
2018-06-12T19:20:38.893Z,0.23
2018-06-12T19:23:07.781Z,0.30
2018-06-12T19:25:38.918Z,0.20
2018-06-12T19:28:08.827Z,0.30
2018-06-12T19:30:37.713Z,0.40
2018-06-12T19:33:06.732Z,0.30
2018-06-12T19:35:35.640Z,0.30
2018-06-12T19:38:04.617Z,0.30
2018-06-12T19:40:33.536Z,0.40
2018-06-12T19:43:02.437Z,0.30
2018-06-12T19:45:31.362Z,0.30
2018-06-12T19:48:00.273Z,0.20
2018-06-12T19:50:29.172Z,0.20
2018-06-12T19:52:58.077Z,0.33
2018-06-12T19:55:26.981Z,0.30
2018-06-12T19:57:55.940Z,0.90
2018-06-12T20:00:24.938Z,0.83
2018-06-12T20:02:53.801Z,0.80
2018-06-12T20:05:22.697Z,0.40
2018-06-12T20:07:51.620Z,0.30
2018-06-12T20:10:20.517Z,0.40
2018-06-12T20:12:49.393Z,0.80
2018-06-12T20:15:18.309Z,0.70
2018-06-12T20:17:47.237Z,1.70
2018-06-12T20:20:16.158Z,1.40
2018-06-12T20:22:45.057Z,1.23
2018-06-12T20:25:13.981Z,2.03
2018-06-12T20:27:43.052Z,1.00
2018-06-12T20:30:11.956Z,1.53
2018-06-12T20:32:40.893Z,1.33
2018-06-12T20:35:09.809Z,1.57
2018-06-12T20:37:38.702Z,1.20
2018-06-12T20:40:07.753Z,0.60
2018-06-12T20:42:36.663Z,0.40
2018-06-12T20:45:05.652Z,0.60
2018-06-12T20:47:34.586Z,0.30
2018-06-12T20:50:03.562Z,1.00
2018-06-12T20:52:32.472Z,1.00
2018-06-12T20:55:01.374Z,0.90
2018-06-12T20:57:30.285Z,1.50
2018-06-12T20:59:59.198Z,0.40
2018-06-12T21:02:28.150Z,0.30
2018-06-12T21:04:57.044Z,0.60
2018-06-12T21:07:26.117Z,0.40
2018-06-12T21:09:54.973Z,0.57
2018-06-12T21:12:23.888Z,0.40
2018-06-12T21:14:52.780Z,0.77
2018-06-12T21:17:21.672Z,0.77
2018-06-12T21:19:50.590Z,0.63
2018-06-12T21:22:19.496Z,0.70
2018-06-12T21:24:48.384Z,1.87
2018-06-12T21:27:17.269Z,1.07
2018-06-12T21:29:46.184Z,0.70
2018-06-12T21:32:15.073Z,0.50
2018-06-12T21:34:43.958Z,0.80
2018-06-12T21:37:12.898Z,0.97
2018-06-12T21:39:41.834Z,0.80
2018-06-12T21:42:10.746Z,1.57
2018-06-12T21:44:39.745Z,2.27
2018-06-12T21:47:08.650Z,1.50
2018-06-12T21:49:37.592Z,1.97
2018-06-12T21:52:06.538Z,0.60
2018-06-12T21:54:35.481Z,0.37
2018-06-12T21:57:04.537Z,1.00
2018-06-12T21:59:33.487Z,0.73
2018-06-12T22:02:01.998Z,0.80
2018-06-12T22:04:30.965Z,0.60
2018-06-12T22:06:59.930Z,0.50
2018-06-12T22:09:28.868Z,0.30
2018-06-12T22:11:57.862Z,0.33
2018-06-12T22:14:29.401Z,0.50
2018-06-12T22:16:58.457Z,0.87
2018-06-12T22:19:27.399Z,0.70
2018-06-12T22:21:56.337Z,0.60
2018-06-12T22:24:27.704Z,0.40
2018-06-12T22:26:56.624Z,0.50
2018-06-12T22:29:25.572Z,0.47
2018-06-12T22:31:54.524Z,0.70
2018-06-12T22:34:23.445Z,0.60
2018-06-12T22:36:52.388Z,0.60
2018-06-12T22:39:21.360Z,0.50
2018-06-12T22:41:50.300Z,0.63
2018-06-12T22:44:19.256Z,0.73
2018-06-12T22:46:48.172Z,0.70
2018-06-12T22:49:17.101Z,0.80
2018-06-12T22:51:46.066Z,0.90
2018-06-12T23:00:56.471Z,0.90
2018-06-12T23:03:25.405Z,1.83
2018-06-12T23:05:54.338Z,1.87
2018-06-12T23:08:23.314Z,2.37
2018-06-12T23:10:52.246Z,2.30
2018-06-12T23:13:21.187Z,2.33
2018-06-12T23:15:50.712Z,1.53
2018-06-12T23:18:19.645Z,0.90
2018-06-12T23:20:59.219Z,1.07
2018-06-12T23:23:28.161Z,1.17
2018-06-12T23:25:57.082Z,1.20
2018-06-12T23:28:26.022Z,0.90
2018-06-12T23:30:54.980Z,1.10
2018-06-12T23:33:23.912Z,0.90
2018-06-12T23:35:52.840Z,1.53
2018-06-12T23:38:21.802Z,1.00
2018-06-12T23:40:53.559Z,1.37
2018-06-12T23:43:22.508Z,1.40
2018-06-12T23:45:51.457Z,0.53
2018-06-12T23:48:20.390Z,0.50
2018-06-12T23:50:49.320Z,0.50
2018-06-12T23:53:18.318Z,0.50
2018-06-12T23:55:47.269Z,0.40
2018-06-12T23:58:16.208Z,0.40
